Time;durP1;ratioP1;P1;durP2;ratioP2;P2;SDS_P1;SDS_P2;PMS_P1;PMS_P2;Temp;Humidity;BMP_temperature;BMP_pressure;BME280_temperature;BME280_humidity;BME280_pressure;Samples;Min_cycle;Max_cycle;Signal;HPM_P1;HPM_P2
2021/07/22 00:00:25;;;;;;;11.30;7.40;;;;;;;25.17;43.89;95221.28;5112695;27;20552;-75
2021/07/22 00:02:51;;;;;;;11.52;7.80;;;;;;;25.13;44.26;95215.34;5115680;27;20015;-75
2021/07/22 00:05:17;;;;;;;10.82;7.47;;;;;;;25.13;43.98;95220.81;5109159;28;20537;-74
2021/07/22 00:07:45;;;;;;;9.88;7.05;;;;;;;25.18;44.34;95211.78;5108907;28;20035;-76
2021/07/22 00:10:11;;;;;;;11.40;7.50;;;;;;;25.19;44.06;95207.81;5107369;28;20028;-76
2021/07/22 00:12:37;;;;;;;10.80;7.53;;;;;;;25.15;44.26;95210.09;5109031;28;20027;-77
2021/07/22 00:15:03;;;;;;;10.38;7.30;;;;;;;25.14;44.36;95208.63;5107738;28;20011;-75
2021/07/22 00:17:28;;;;;;;10.18;7.32;;;;;;;25.16;44.54;95208.84;5108746;28;20115;-74
2021/07/22 00:19:54;;;;;;;11.68;7.60;;;;;;;25.14;44.46;95194.22;5108891;28;20028;-77
2021/07/22 00:22:19;;;;;;;11.70;7.22;;;;;;;25.21;44.33;95199.84;5107827;28;20068;-74
2021/07/22 00:24:45;;;;;;;10.82;7.75;;;;;;;24.82;44.32;95151.63;5108760;28;20031;-75
2021/07/22 00:27:14;;;;;;;10.45;7.32;;;;;;;25.21;44.59;95199.84;5108865;28;20023;-74
2021/07/22 00:29:40;;;;;;;11.07;7.55;;;;;;;25.17;44.70;95193.19;5107229;28;20027;-74
2021/07/22 00:32:06;;;;;;;11.45;7.68;;;;;;;25.16;44.50;95192.44;5108727;28;20036;-73
2021/07/22 00:34:33;;;;;;;11.38;7.30;;;;;;;25.16;44.57;95186.97;5108713;27;20034;-73
2021/07/22 00:36:59;;;;;;;12.27;7.80;;;;;;;25.05;44.87;95187.13;5108783;28;20044;-76
2021/07/22 00:39:24;;;;;;;10.40;7.22;;;;;;;25.10;44.93;95189.03;5108473;28;20026;-75
2021/07/22 00:41:49;;;;;;;11.07;7.40;;;;;;;25.16;44.56;95189.72;5115613;27;20524;-76
2021/07/22 00:44:15;;;;;;;11.55;7.70;;;;;;;25.17;44.41;95187.72;5128578;27;20046;-75
2021/07/22 00:46:40;;;;;;;10.52;7.55;;;;;;;24.75;44.43;95133.09;5128720;27;20020;-75
2021/07/22 00:49:11;;;;;;;11.48;7.22;;;;;;;25.14;44.45;95186.78;5127863;27;20023;-76
2021/07/22 00:51:38;;;;;;;11.20;7.22;;;;;;;25.11;44.83;95184.31;5128661;27;20047;-75
2021/07/22 00:54:04;;;;;;;9.45;7.20;;;;;;;25.10;44.88;95186.31;5128743;27;20027;-75
2021/07/22 00:56:30;;;;;;;12.60;7.20;;;;;;;24.74;44.54;95131.59;5128813;27;20054;-74
2021/07/22 00:58:56;;;;;;;11.05;7.38;;;;;;;25.10;44.61;95194.50;5127583;27;20031;-75
2021/07/22 01:01:21;;;;;;;10.35;6.43;;;;;;;25.04;44.63;95195.84;5128558;27;20792;-77
2021/07/22 01:03:46;;;;;;;9.50;7.25;;;;;;;25.00;44.82;95190.66;5128363;27;20026;-76
2021/07/22 01:06:12;;;;;;;10.80;7.38;;;;;;;24.81;44.48;95152.88;5127348;27;20035;-75
2021/07/22 01:08:37;;;;;;;10.98;7.30;;;;;;;24.54;44.57;95115.72;5126431;27;20075;-76
2021/07/22 01:11:03;;;;;;;10.02;7.00;;;;;;;24.97;44.66;95172.53;5126838;27;20066;-76
2021/07/22 01:13:28;;;;;;;9.80;6.70;;;;;;;24.27;44.96;95073.06;5128316;27;20031;-73
2021/07/22 01:15:54;;;;;;;11.07;7.07;;;;;;;25.00;44.64;95185.19;5124707;27;20027;-75
2021/07/22 01:18:19;;;;;;;9.10;6.50;;;;;;;25.02;44.68;95188.16;5107039;28;20026;-75
2021/07/22 01:20:45;;;;;;;12.18;6.93;;;;;;;25.05;44.82;95192.59;5107002;28;20066;-75
2021/07/22 01:23:10;;;;;;;10.90;6.70;;;;;;;25.04;44.61;95207.50;5107567;28;20027;-75
2021/07/22 01:25:35;;;;;;;12.07;7.53;;;;;;;25.00;44.83;95196.13;5107404;28;20032;-76
2021/07/22 01:28:01;;;;;;;8.85;6.80;;;;;;;24.84;44.90;95172.47;5107235;28;20019;-76
2021/07/22 01:30:26;;;;;;;9.98;6.65;;;;;;;24.99;44.73;95191.94;5106500;28;20144;-77
2021/07/22 01:32:52;;;;;;;11.18;6.90;;;;;;;24.95;44.74;95191.44;5107340;28;20092;-77
2021/07/22 01:35:18;;;;;;;10.45;7.10;;;;;;;24.91;44.96;95187.53;5107205;28;20027;-76
2021/07/22 01:37:44;;;;;;;9.65;6.93;;;;;;;24.00;45.16;95057.72;5105945;28;20028;-76
2021/07/22 01:40:10;;;;;;;10.20;7.53;;;;;;;24.94;44.75;95195.41;5089300;28;20425;-76
2021/07/22 01:42:36;;;;;;;9.65;7.07;;;;;;;24.98;44.88;95197.88;5106073;28;20106;-76
2021/07/22 01:45:06;;;;;;;11.00;6.72;;;;;;;24.96;44.80;95195.66;5105773;28;20453;-74
2021/07/22 01:47:32;;;;;;;;;;;;;;;24.90;45.14;95197.72;5107654;28;20028;-75
2021/07/22 01:49:57;;;;;;;9.75;6.22;;;;;;;24.36;45.23;95122.63;5107058;28;20434;-75
2021/07/22 01:52:23;;;;;;;11.95;7.35;;;;;;;24.89;45.67;95193.50;5107169;28;20383;-77
2021/07/22 01:54:48;;;;;;;9.85;6.85;;;;;;;24.21;45.36;95105.13;5107206;28;20051;-76
2021/07/22 01:57:14;;;;;;;10.05;6.80;;;;;;;24.79;45.16;95191.63;5107289;28;20026;-75
2021/07/22 01:59:39;;;;;;;10.02;6.85;;;;;;;24.83;44.97;95200.28;5107038;28;20023;-74
2021/07/22 02:02:06;;;;;;;8.82;6.40;;;;;;;24.82;45.42;95185.88;5106904;28;20027;-75
2021/07/22 02:04:32;;;;;;;9.35;6.50;;;;;;;24.69;45.16;95170.66;5106847;28;20030;-74
2021/07/22 02:06:57;;;;;;;12.80;6.75;;;;;;;24.82;45.50;95189.88;5071833;28;20023;-75
2021/07/22 02:09:23;;;;;;;8.85;6.63;;;;;;;24.85;45.14;95201.22;5106878;28;20023;-74
2021/07/22 02:11:49;;;;;;;10.65;6.50;;;;;;;24.86;45.55;95193.78;5106699;28;20269;-75
2021/07/22 02:14:14;;;;;;;9.85;6.75;;;;;;;24.82;45.66;95194.06;5105181;27;20492;-74
2021/07/22 02:16:40;;;;;;;10.07;6.22;;;;;;;24.78;45.28;95194.88;5105405;28;20027;-74
2021/07/22 02:19:05;;;;;;;9.65;7.25;;;;;;;24.78;45.26;95189.41;5106754;28;20031;-76
2021/07/22 02:21:31;;;;;;;9.52;6.70;;;;;;;24.65;45.45;95181.09;5088402;28;20508;-76
2021/07/22 02:23:56;;;;;;;9.00;6.00;;;;;;;24.72;45.20;95186.00;5105251;28;20516;-75
2021/07/22 02:26:22;;;;;;;11.35;6.68;;;;;;;24.73;45.76;95198.41;5088346;28;20027;-75
2021/07/22 02:28:47;;;;;;;8.65;6.35;;;;;;;24.72;45.80;95188.75;5107090;28;20027;-76
2021/07/22 02:31:12;;;;;;;11.27;6.80;;;;;;;24.71;45.70;95190.75;5106354;28;20096;-75
2021/07/22 02:33:38;;;;;;;8.93;6.40;;;;;;;24.68;45.46;95197.22;5106663;28;20035;-74
2021/07/22 02:36:03;;;;;;;10.35;6.53;;;;;;;24.27;46.10;95157.66;5104944;28;20027;-74
2021/07/22 02:38:29;;;;;;;9.73;6.50;;;;;;;24.68;45.74;95196.47;5104857;28;20032;-74
2021/07/22 02:40:54;;;;;;;9.52;6.43;;;;;;;24.65;46.07;95198.25;5106466;28;20866;-76
2021/07/22 02:43:20;;;;;;;10.63;6.35;;;;;;;24.66;45.86;95198.97;5106612;28;20026;-75
2021/07/22 02:45:45;;;;;;;8.15;6.10;;;;;;;24.66;45.86;95198.97;5106026;28;20160;-74
2021/07/22 02:48:11;;;;;;;8.98;6.07;;;;;;;24.67;46.01;95208.66;5106053;28;20035;-74
2021/07/22 02:50:36;;;;;;;9.38;6.47;;;;;;;24.68;46.10;95201.94;5106434;28;20011;-75
2021/07/22 02:53:04;;;;;;;9.85;6.55;;;;;;;24.69;46.25;95203.41;5104714;28;20071;-74
2021/07/22 02:55:30;;;;;;;8.45;6.20;;;;;;;24.66;46.32;95202.44;5104625;28;20071;-75
2021/07/22 02:57:55;;;;;;;11.02;6.00;;;;;;;24.72;46.25;95213.31;5106133;28;20163;-76
2021/07/22 03:00:21;;;;;;;10.02;6.43;;;;;;;24.66;45.63;95209.91;5105976;28;20049;-74
2021/07/22 03:02:46;;;;;;;8.93;6.20;;;;;;;24.24;45.91;95147.75;5106199;28;20042;-75
2021/07/22 03:05:12;;;;;;;8.65;5.88;;;;;;;24.67;45.84;95211.41;5104654;28;20032;-77
2021/07/22 03:07:37;;;;;;;9.13;6.20;;;;;;;24.56;45.94;95200.59;5106341;28;20027;-75
2021/07/22 03:10:03;;;;;;;10.18;6.60;;;;;;;24.65;46.35;95202.97;5104890;28;20114;-78
2021/07/22 03:12:29;;;;;;;10.38;6.45;;;;;;;24.68;45.84;95204.66;5105016;28;20088;-75
2021/07/22 03:14:54;;;;;;;10.90;6.53;;;;;;;24.56;46.04;95197.88;5106128;28;20064;-75
2021/07/22 03:17:20;;;;;;;8.68;6.07;;;;;;;24.62;46.59;95207.47;5105995;28;20035;-77
2021/07/22 03:19:45;;;;;;;9.30;6.07;;;;;;;24.47;46.31;95187.28;5118068;28;20023;-74
2021/07/22 03:22:10;;;;;;;15.13;6.70;;;;;;;24.59;46.10;95202.31;5126716;28;20076;-76
2021/07/22 03:24:36;;;;;;;8.90;6.22;;;;;;;24.55;46.15;95205.31;5126358;28;20482;-74
2021/07/22 03:27:01;;;;;;;10.65;6.15;;;;;;;24.47;46.06;95181.81;5137983;28;20402;-75
2021/07/22 03:29:27;;;;;;;10.60;7.60;;;;;;;23.92;46.49;95105.91;5128776;28;20026;-74
2021/07/22 03:31:52;;;;;;;8.93;6.55;;;;;;;24.46;46.32;95183.06;5129127;27;20015;-74
2021/07/22 03:34:18;;;;;;;10.05;6.55;;;;;;;24.09;46.43;95131.03;5129384;27;20402;-74
2021/07/22 03:36:47;;;;;;;8.73;5.65;;;;;;;24.49;46.69;95179.31;5108660;28;20113;-75
2021/07/22 03:39:12;;;;;;;10.00;6.20;;;;;;;24.62;46.62;95198.53;5109648;28;20019;-74
2021/07/22 03:41:38;;;;;;;11.23;6.65;;;;;;;24.24;46.40;95136.84;5109656;28;20108;-75
2021/07/22 03:44:04;;;;;;;10.30;6.57;;;;;;;24.60;46.84;95206.50;5108218;28;20028;-75
2021/07/22 03:46:32;;;;;;;10.55;6.90;;;;;;;24.48;46.90;95177.81;5109200;28;20329;-78
2021/07/22 03:48:58;;;;;;;8.35;6.47;;;;;;;24.64;46.55;95206.97;5109509;28;20111;-76
2021/07/22 03:51:23;;;;;;;8.90;6.30;;;;;;;24.61;46.48;95202.53;5109172;28;20024;-75
2021/07/22 03:53:49;;;;;;;10.80;6.90;;;;;;;24.58;46.63;95198.81;5108380;28;20100;-77
2021/07/22 03:56:14;;;;;;;10.43;6.78;;;;;;;24.57;46.51;95196.59;5109506;28;20594;-76
2021/07/22 03:58:40;;;;;;;10.55;6.93;;;;;;;24.18;47.00;95144.34;5109510;28;20463;-77
2021/07/22 04:01:05;;;;;;;9.55;6.63;;;;;;;24.56;46.73;95206.78;5108194;28;20501;-77
2021/07/22 04:03:35;;;;;;;10.52;6.10;;;;;;;24.58;46.52;95209.00;5114600;27;20493;-77
2021/07/22 04:06:00;;;;;;;11.20;6.82;;;;;;;24.60;47.11;95211.97;5119866;27;20023;-75
2021/07/22 04:08:26;;;;;;;16.80;7.28;;;;;;;24.55;46.86;95210.03;5118292;27;20027;-77
2021/07/22 04:10:51;;;;;;;10.10;6.07;;;;;;;24.28;46.75;95180.25;5118986;27;20146;-76
2021/07/22 04:13:17;;;;;;;11.15;7.70;;;;;;;24.58;46.98;95219.94;5119972;27;20019;-75
2021/07/22 04:15:42;;;;;;;8.98;6.45;;;;;;;24.53;46.89;95216.00;5117726;27;20012;-74
2021/07/22 04:18:08;;;;;;;11.43;6.55;;;;;;;24.62;47.16;95234.03;5119428;27;20048;-74
2021/07/22 04:20:33;;;;;;;8.90;6.50;;;;;;;24.63;47.17;95232.78;5119309;27;20023;-75
2021/07/22 04:22:59;;;;;;;9.35;6.30;;;;;;;24.67;46.72;95233.25;5117570;27;20031;-74
2021/07/22 04:25:24;;;;;;;9.13;6.68;;;;;;;24.64;46.73;95239.72;5117983;27;20027;-75
2021/07/22 04:27:50;;;;;;;11.00;6.90;;;;;;;24.59;46.94;95237.81;5119018;27;20034;-74
2021/07/22 04:30:15;;;;;;;10.90;6.85;;;;;;;24.11;46.80;95150.41;5122506;27;20030;-75
2021/07/22 04:32:41;;;;;;;10.77;7.10;;;;;;;24.65;47.20;95235.72;5122578;27;20036;-76
2021/07/22 04:35:09;;;;;;;11.18;7.20;;;;;;;24.65;47.22;95230.25;5117758;27;20026;-75
2021/07/22 04:37:36;;;;;;;11.43;6.80;;;;;;;24.65;47.01;95233.00;5116689;27;20050;-74
2021/07/22 04:40:23;;;;;;;10.00;6.40;;;;;;;24.65;47.25;95236.50;5122963;27;20037;-76
2021/07/22 04:42:49;;;;;;;11.15;6.72;;;;;;;24.00;47.04;95138.84;5117969;27;20022;-74
2021/07/22 04:45:14;;;;;;;12.63;7.18;;;;;;;24.65;47.15;95224.81;5127618;27;20114;-74
2021/07/22 04:47:43;;;;;;;10.73;6.72;;;;;;;24.56;47.30;95228.63;5127460;27;20034;-76
2021/07/22 04:50:08;;;;;;;9.98;6.75;;;;;;;24.67;47.35;95233.25;5130126;27;20031;-73
2021/07/22 04:52:34;;;;;;;12.20;7.40;;;;;;;24.68;46.93;95237.44;5129659;27;20034;-73
2021/07/22 04:54:59;;;;;;;10.75;6.43;;;;;;;24.25;46.90;95182.00;5127485;27;20341;-75
2021/07/22 04:57:25;;;;;;;11.68;7.22;;;;;;;24.18;46.91;95171.66;5108867;27;20046;-77
2021/07/22 04:59:50;;;;;;;9.25;6.18;;;;;;;24.23;47.07;95159.94;5101369;28;20080;-73
2021/07/22 05:02:16;;;;;;;10.60;7.03;;;;;;;24.31;47.10;95185.41;5125458;27;20030;-81
2021/07/22 05:04:41;;;;;;;11.73;7.47;;;;;;;24.53;47.26;95207.09;5128584;27;20026;-79
2021/07/22 05:07:07;;;;;;;12.63;6.88;;;;;;;24.73;47.37;95236.66;5118733;27;20019;-77
2021/07/22 05:09:32;;;;;;;8.63;6.22;;;;;;;24.77;47.33;95239.81;5122951;27;20023;-84
2021/07/22 05:11:58;;;;;;;9.50;6.55;;;;;;;24.69;47.69;95219.81;5108476;28;20036;-76
2021/07/22 05:14:23;;;;;;;12.43;7.00;;;;;;;24.81;47.59;95235.56;5108098;28;20489;-75
2021/07/22 05:16:49;;;;;;;12.07;6.78;;;;;;;24.50;47.28;95202.66;5098843;27;20503;-82
2021/07/22 05:19:15;;;;;;;11.05;7.07;;;;;;;24.89;47.32;95233.75;5119958;27;20035;-76
2021/07/22 05:21:41;;;;;;;10.32;6.80;;;;;;;24.91;47.17;95240.16;5105916;28;20065;-77
2021/07/22 05:24:06;;;;;;;10.77;6.65;;;;;;;24.94;47.11;95236.41;5116305;27;20023;-76
2021/07/22 05:26:32;;;;;;;10.88;6.43;;;;;;;24.92;47.48;95222.53;5122923;27;20044;-77
2021/07/22 05:28:57;;;;;;;12.60;6.30;;;;;;;24.92;47.54;95233.44;5123853;27;20015;-78
2021/07/22 05:31:23;;;;;;;9.10;6.47;;;;;;;24.93;47.85;95234.94;5124840;27;20011;-76
2021/07/22 05:33:48;;;;;;;10.25;6.88;;;;;;;24.97;47.64;95232.63;5126947;27;20023;-77
2021/07/22 05:36:14;;;;;;;10.25;7.10;;;;;;;25.01;47.77;95230.41;5117856;27;20028;-78
2021/07/22 05:38:39;;;;;;;9.98;6.63;;;;;;;25.08;47.54;95240.75;5125709;27;20058;-78
2021/07/22 05:41:06;;;;;;;10.88;6.57;;;;;;;25.11;47.43;95234.25;5108771;27;20024;-79
2021/07/22 05:43:32;;;;;;;11.88;7.10;;;;;;;25.21;47.63;95238.09;5127210;27;20054;-80
2021/07/22 05:45:57;;;;;;;9.80;6.25;;;;;;;24.68;47.48;95156.25;5118112;27;20196;-76
2021/07/22 05:48:23;;;;;;;11.40;6.30;;;;;;;25.22;47.04;95217.72;5122229;27;20410;-79
2021/07/22 05:50:49;;;;;;;11.57;6.72;;;;;;;25.41;47.10;95245.78;5115440;27;20034;-83
2021/07/22 05:53:15;;;;;;;11.77;6.75;;;;;;;24.96;47.12;95167.56;5129525;27;20046;-77
2021/07/22 05:55:40;;;;;;;10.50;6.75;;;;;;;25.53;47.19;95241.66;5116705;27;20077;-80
2021/07/22 05:58:06;;;;;;;11.13;6.43;;;;;;;25.52;47.18;95229.25;5116761;27;20050;-77
2021/07/22 06:00:31;;;;;;;9.10;6.57;;;;;;;25.70;46.76;95245.69;5122916;27;20409;-85
2021/07/22 06:02:57;;;;;;;12.45;6.60;;;;;;;25.79;46.28;95248.75;5119204;27;20023;-79
2021/07/22 06:05:22;;;;;;;11.98;6.80;;;;;;;25.80;46.57;95244.78;5125629;27;20473;-78
2021/07/22 06:07:48;;;;;;;10.93;6.57;;;;;;;25.95;45.79;95247.78;5114887;27;20054;-81
2021/07/22 06:10:13;;;;;;;12.43;7.50;;;;;;;26.00;45.80;95252.44;5120315;27;20455;-83
2021/07/22 06:12:41;;;;;;;9.88;5.78;;;;;;;26.11;45.45;95235.84;5126990;27;20018;-83
2021/07/22 06:15:08;;;;;;;12.55;6.55;;;;;;;26.16;45.29;95254.19;5109820;27;20046;-84
2021/07/22 06:17:34;;;;;;;8.75;6.18;;;;;;;26.26;45.09;95247.03;5129137;27;20027;-81
2021/07/22 06:20:00;;;;;;;9.35;6.00;;;;;;;25.46;44.49;95119.22;5125481;27;20034;-79
2021/07/22 06:22:25;;;;;;;9.82;5.68;;;;;;;26.28;44.17;95233.63;5122999;27;20035;-79
2021/07/22 06:24:51;;;;;;;11.63;6.03;;;;;;;26.19;44.05;95220.28;5104875;27;20028;-76
2021/07/22 06:27:16;;;;;;;9.75;5.32;;;;;;;25.67;44.14;95137.28;5126682;27;20027;-74
2021/07/22 06:29:41;;;;;;;8.95;6.18;;;;;;;26.53;43.91;95248.59;5113659;27;20027;-72
2021/07/22 06:32:07;;;;;;;11.88;5.70;;;;;;;26.57;43.69;95244.28;5116068;27;20572;-79
2021/07/22 06:34:32;;;;;;;10.55;6.07;;;;;;;26.02;44.29;95167.81;5119604;27;20080;-80
2021/07/22 06:36:58;;;;;;;10.82;5.40;;;;;;;26.62;43.74;95250.94;5099444;27;20043;-77
2021/07/22 06:39:23;;;;;;;7.40;5.40;;;;;;;26.64;43.89;95251.19;5125239;27;20023;-79
2021/07/22 06:41:49;;;;;;;12.18;6.60;;;;;;;26.64;43.31;95254.66;5110878;27;20016;-79
2021/07/22 06:44:14;;;;;;;8.85;5.90;;;;;;;26.52;43.41;95230.72;5114649;27;20401;-78
2021/07/22 06:46:40;;;;;;;8.52;5.68;;;;;;;26.61;43.57;95260.44;5127331;27;20390;-81
2021/07/22 06:49:05;;;;;;;7.32;5.35;;;;;;;26.60;42.99;95258.97;5125765;28;20035;-79
2021/07/22 06:51:30;;;;;;;7.28;5.05;;;;;;;26.24;42.96;95199.56;5107525;28;20123;-79
2021/07/22 06:53:56;;;;;;;7.43;5.07;;;;;;;26.07;42.82;95186.16;5112619;28;20015;-77
2021/07/22 06:56:22;;;;;;;6.75;4.75;;;;;;;26.48;42.50;95249.44;5117282;27;20051;-78
2021/07/22 06:58:48;;;;;;;5.93;3.95;;;;;;;26.45;42.33;95242.28;5117990;27;20513;-79
2021/07/22 07:01:15;;;;;;;6.18;4.03;;;;;;;26.44;42.05;95251.75;5126496;27;20607;-78
2021/07/22 07:03:40;;;;;;;6.45;4.15;;;;;;;26.40;41.61;95234.91;5127690;27;20034;-78
2021/07/22 07:06:05;;;;;;;9.38;5.18;;;;;;;26.40;42.08;95245.88;5121617;27;20023;-79
2021/07/22 07:08:31;;;;;;;6.00;4.20;;;;;;;26.38;42.16;95242.88;5120376;27;20031;-77
2021/07/22 07:10:56;;;;;;;7.05;4.03;;;;;;;26.39;42.16;95238.91;5125562;27;20024;-79
2021/07/22 07:13:22;;;;;;;5.90;4.20;;;;;;;26.23;41.94;95217.97;5129605;27;20042;-80
2021/07/22 07:15:47;;;;;;;5.28;3.60;;;;;;;26.39;41.87;95233.41;5128579;27;20492;-79
2021/07/22 07:18:13;;;;;;;5.70;4.13;;;;;;;26.36;41.75;95229.72;5128057;27;20060;-80
2021/07/22 07:20:38;;;;;;;6.22;3.90;;;;;;;26.36;41.65;95229.00;5119634;27;20466;-81
2021/07/22 07:23:04;;;;;;;7.72;3.78;;;;;;;26.34;41.82;95226.78;5118606;27;20031;-77
2021/07/22 07:25:29;;;;;;;6.90;3.95;;;;;;;25.54;41.65;95109.13;5119460;27;20149;-80
2021/07/22 07:27:55;;;;;;;7.82;4.00;;;;;;;25.76;41.02;95147.84;5113111;27;20088;-79
2021/07/22 07:30:20;;;;;;;5.47;3.75;;;;;;;26.38;41.44;95226.47;5114428;27;20030;-80
2021/07/22 07:32:47;;;;;;;4.63;3.47;;;;;;;26.38;41.29;95226.47;5125245;27;20075;-79
2021/07/22 07:35:13;;;;;;;6.30;3.85;;;;;;;26.32;41.05;95212.13;5128000;27;20027;-79
2021/07/22 07:37:38;;;;;;;5.43;3.70;;;;;;;25.91;41.16;95140.63;5131312;27;20027;-79
2021/07/22 07:40:05;;;;;;;7.60;3.97;;;;;;;26.21;41.34;95201.34;5127889;27;20027;-80
2021/07/22 07:42:30;;;;;;;7.18;3.35;;;;;;;25.95;41.14;95157.47;5120229;27;20069;-81
2021/07/22 07:44:55;;;;;;;6.82;3.40;;;;;;;26.39;40.87;95217.00;5116139;27;20529;-78
2021/07/22 07:47:21;;;;;;;8.43;3.88;;;;;;;26.38;40.69;95216.25;5121883;27;20539;-78
2021/07/22 07:49:46;;;;;;;5.72;3.38;;;;;;;26.31;40.19;95200.44;5120850;27;20552;-79
2021/07/22 07:52:12;;;;;;;7.00;3.28;;;;;;;26.20;40.02;95183.41;5128283;27;20038;-80
2021/07/22 07:54:37;;;;;;;5.25;3.22;;;;;;;26.29;40.07;95191.25;5129758;27;20493;-80
2021/07/22 07:57:03;;;;;;;5.13;2.95;;;;;;;26.36;40.19;95201.59;5130505;27;20031;-83
2021/07/22 07:59:28;;;;;;;5.80;3.53;;;;;;;26.10;40.42;95176.88;5132824;27;20038;-79
2021/07/22 08:02:02;;;;;;;4.95;3.20;;;;;;;26.19;40.40;95171.00;5130880;27;20448;-82
2021/07/22 08:04:28;;;;;;;4.82;2.92;;;;;;;25.58;39.76;95090.44;5134044;27;20554;-79
2021/07/22 08:06:53;;;;;;;7.30;3.17;;;;;;;26.45;39.91;95214.91;5132651;27;20038;-79
2021/07/22 08:09:19;;;;;;;4.30;2.92;;;;;;;26.24;40.02;95183.88;5130513;27;20037;-81
2021/07/22 08:11:44;;;;;;;5.25;3.05;;;;;;;26.44;39.63;95213.41;5125511;27;20031;-78
2021/07/22 08:14:10;;;;;;;5.38;3.08;;;;;;;26.48;39.44;95217.31;5121450;27;20028;-78
2021/07/22 08:16:35;;;;;;;5.90;3.00;;;;;;;26.45;39.30;95210.16;5093491;28;20451;-77
2021/07/22 08:19:01;;;;;;;6.30;2.70;;;;;;;26.47;39.34;95217.84;5117350;27;20048;-80
2021/07/22 08:21:26;;;;;;;4.57;2.63;;;;;;;26.53;38.73;95215.75;5129860;27;20035;-79
2021/07/22 08:23:52;;;;;;;4.13;2.88;;;;;;;26.54;38.42;95219.97;5130012;27;20027;-79
2021/07/22 08:26:17;;;;;;;4.72;2.60;;;;;;;26.37;39.28;95198.34;5124203;27;20031;-76
2021/07/22 08:28:43;;;;;;;5.07;2.78;;;;;;;26.56;38.74;95220.16;5120216;27;20039;-80
2021/07/22 08:31:08;;;;;;;5.82;2.55;;;;;;;26.44;38.09;95191.50;5112109;28;20416;-79
2021/07/22 08:33:33;;;;;;;5.65;3.00;;;;;;;26.17;37.71;95151.63;5108065;28;20036;-79
2021/07/22 08:35:59;;;;;;;3.75;2.45;;;;;;;26.15;37.81;95169.84;5109473;28;20027;-78
2021/07/22 08:38:24;;;;;;;4.38;2.50;;;;;;;26.34;38.25;95182.22;5106131;28;20818;-79
2021/07/22 08:40:50;;;;;;;3.90;2.72;;;;;;;26.63;38.01;95222.28;5107441;27;20030;-77
2021/07/22 08:43:15;;;;;;;4.57;2.60;;;;;;;26.67;38.45;95225.47;5128948;27;20039;-81
2021/07/22 08:45:41;;;;;;;4.30;2.70;;;;;;;26.66;38.46;95223.97;5129569;27;20039;-78
2021/07/22 08:48:06;;;;;;;5.18;2.70;;;;;;;26.75;38.93;95226.31;5116113;27;20031;-79
2021/07/22 08:50:32;;;;;;;5.50;2.65;;;;;;;26.68;38.94;95211.25;5131653;27;20027;-79
2021/07/22 08:52:57;;;;;;;3.83;2.45;;;;;;;26.79;38.51;95222.72;5131169;27;20039;-78
2021/07/22 08:55:23;;;;;;;5.63;2.88;;;;;;;26.84;38.47;95221.88;5120620;27;20058;-78
2021/07/22 08:57:48;;;;;;;5.18;2.90;;;;;;;26.89;38.63;95221.06;5125347;27;20023;-78
2021/07/22 09:00:15;;;;;;;5.55;2.97;;;;;;;26.50;38.86;95162.00;5129684;27;20031;-78
2021/07/22 09:02:42;;;;;;;5.53;3.35;;;;;;;26.95;38.74;95213.47;5110307;27;20144;-79
2021/07/22 09:05:08;;;;;;;6.43;3.03;;;;;;;26.95;38.68;95218.97;5125921;27;20108;-76
2021/07/22 09:07:33;;;;;;;3.60;2.63;;;;;;;26.98;38.57;95220.66;5123285;27;20034;-77
2021/07/22 09:10:09;;;;;;;7.05;3.38;;;;;;;27.04;39.06;95220.53;5111232;27;20508;-77
2021/07/22 09:12:42;;;;;;;6.28;2.83;;;;;;;26.83;39.18;95186.75;5115740;27;20482;-76
2021/07/22 09:15:09;;;;;;;4.72;2.78;;;;;;;27.04;38.46;95204.84;5120306;27;20409;-75
2021/07/22 09:17:35;;;;;;;5.57;3.17;;;;;;;27.17;38.44;95213.03;5110418;27;20558;-75
2021/07/22 09:20:00;;;;;;;4.95;2.83;;;;;;;27.21;38.68;95218.19;5124646;27;20031;-77
2021/07/22 09:22:36;;;;;;;4.78;3.13;;;;;;;27.24;38.36;95204.16;5119714;27;20084;-75
2021/07/22 09:25:01;;;;;;;3.83;2.80;;;;;;;27.18;38.18;95198.06;5121896;27;20532;-81
2021/07/22 09:27:39;;;;;;;4.68;3.55;;;;;;;27.41;38.04;95210.78;5118492;27;20019;-82
2021/07/22 09:30:25;;;;;;;5.25;3.38;;;;;;;27.48;38.45;95209.38;5113606;27;20027;-82
2021/07/22 09:32:51;;;;;;;7.93;3.47;;;;;;;27.59;38.17;95211.91;5111352;27;20046;-74
2021/07/22 09:35:21;;;;;;;5.65;3.22;;;;;;;27.67;38.08;95215.47;5118123;27;20031;-76
2021/07/22 09:37:56;;;;;;;6.93;3.50;;;;;;;27.74;38.27;95210.81;5112992;27;20024;-76
2021/07/22 09:40:24;;;;;;;4.72;3.17;;;;;;;27.82;37.86;95200.66;5118740;27;20566;-75
2021/07/22 09:42:50;;;;;;;4.68;3.03;;;;;;;27.73;38.01;95181.88;5110683;27;20071;-75
2021/07/22 09:45:19;;;;;;;4.43;2.90;;;;;;;27.98;37.15;95207.75;5121150;27;20028;-73
2021/07/22 09:47:45;;;;;;;5.00;3.08;;;;;;;28.03;37.04;95198.66;5111311;27;20494;-80
2021/07/22 09:50:15;;;;;;;4.43;3.05;;;;;;;28.10;36.61;95198.03;5128883;27;20118;-78
2021/07/22 09:52:41;;;;;;;5.18;3.13;;;;;;;28.17;35.79;95202.81;5116309;27;20019;-77
2021/07/22 09:55:29;;;;;;;4.78;2.90;;;;;;;28.29;35.22;95206.78;5115918;27;20082;-80
2021/07/22 09:57:56;;;;;;;4.72;2.70;;;;;;;28.48;36.00;95204.56;5110642;27;20511;-76
2021/07/22 10:00:21;;;;;;;4.32;2.85;;;;;;;28.48;36.59;95205.28;5116762;27;20031;-77
2021/07/22 10:02:48;;;;;;;5.55;2.60;;;;;;;28.66;35.43;95198.09;5109127;27;20050;-76
2021/07/22 10:05:13;;;;;;;5.18;2.97;;;;;;;28.73;35.71;95198.91;5114333;27;20046;-79
2021/07/22 10:07:40;;;;;;;4.57;2.67;;;;;;;28.35;35.59;95135.94;5113503;27;20505;-78
2021/07/22 10:10:05;;;;;;;5.32;3.00;;;;;;;28.58;35.62;95158.81;5113288;27;20054;-76
2021/07/22 10:12:31;;;;;;;6.03;2.60;;;;;;;28.86;34.92;95193.31;5118728;27;20054;-76
2021/07/22 10:14:57;;;;;;;4.50;2.75;;;;;;;28.94;35.42;95191.31;5118102;27;20718;-78
2021/07/22 10:17:25;;;;;;;5.38;2.70;;;;;;;29.00;34.65;95178.16;5117763;27;20020;-76
2021/07/22 10:19:50;;;;;;;5.07;2.45;;;;;;;28.73;34.55;95126.69;5124904;27;20739;-76
2021/07/22 10:22:16;;;;;;;5.05;2.33;;;;;;;29.23;33.93;95190.00;5117348;27;20076;-76
2021/07/22 10:24:41;;;;;;;3.97;2.33;;;;;;;29.19;34.53;95187.59;5121989;27;20103;-76
2021/07/22 10:27:07;;;;;;;3.90;2.03;;;;;;;29.13;34.44;95189.03;5123977;27;20424;-76
2021/07/22 10:29:33;;;;;;;3.70;1.98;;;;;;;28.96;34.54;95166.75;5116363;27;20026;-75
2021/07/22 10:31:58;;;;;;;4.07;1.98;;;;;;;29.18;33.62;95183.38;5125309;27;20042;-75
2021/07/22 10:34:24;;;;;;;3.65;2.10;;;;;;;28.36;33.67;95060.50;5121175;27;20447;-75
2021/07/22 10:36:50;;;;;;;4.32;2.10;;;;;;;29.19;34.10;95186.84;5119389;27;20645;-75
2021/07/22 10:39:15;;;;;;;3.00;1.90;;;;;;;29.19;33.97;95189.59;5115355;27;20027;-75
2021/07/22 10:41:41;;;;;;;4.25;2.28;;;;;;;29.14;33.99;95176.75;5114850;28;20028;-75
2021/07/22 10:44:19;;;;;;;4.45;2.22;;;;;;;29.14;34.31;95182.25;5119866;27;20051;-75
2021/07/22 10:46:55;;;;;;;3.38;2.50;;;;;;;29.14;34.62;95179.50;5111290;28;20035;-76
2021/07/22 10:49:20;;;;;;;3.95;2.28;;;;;;;29.11;34.45;95175.09;5114766;28;20027;-75
2021/07/22 10:51:46;;;;;;;3.40;2.10;;;;;;;29.10;34.45;95187.34;5110024;28;20747;-75
2021/07/22 10:54:43;;;;;;;6.03;2.20;;;;;;;29.07;34.70;95176.72;5111594;28;20115;-78
2021/07/22 10:57:36;;;;;;;6.13;2.45;;;;;;;28.97;36.01;95168.25;5110526;28;20035;-72
2021/07/22 11:00:04;;;;;;;3.67;2.22;;;;;;;28.38;35.82;95088.16;5113782;28;20437;-77
2021/07/22 11:02:41;;;;;;;5.07;2.22;;;;;;;28.97;35.04;95165.50;5114665;28;20019;-75
2021/07/22 11:05:10;;;;;;;4.75;2.00;;;;;;;28.65;35.44;95116.91;5117525;28;20027;-76
2021/07/22 11:07:36;;;;;;;5.43;2.33;;;;;;;28.98;34.31;95166.94;5123168;28;20300;-76
2021/07/22 11:10:02;;;;;;;6.57;1.90;;;;;;;28.96;35.13;95163.28;5109075;28;20589;-75
2021/07/22 11:12:44;;;;;;;4.13;2.25;;;;;;;28.95;35.25;95159.81;5113790;27;20080;-75
2021/07/22 11:15:12;;;;;;;3.47;2.05;;;;;;;28.74;36.29;95137.16;5121848;28;20020;-77
2021/07/22 11:17:38;;;;;;;5.63;2.20;;;;;;;28.94;35.67;95160.34;5117646;28;20031;-79
2021/07/22 11:20:21;;;;;;;6.25;2.00;;;;;;;28.93;36.38;95151.34;5126962;27;20088;-77
2021/07/22 11:22:47;;;;;;;4.60;2.05;;;;;;;28.52;36.65;95089.50;5118185;28;20031;-78
2021/07/22 11:25:13;;;;;;;4.20;2.20;;;;;;;28.86;36.42;95141.06;5112387;28;21663;-76
2021/07/22 11:27:45;;;;;;;2.88;1.90;;;;;;;28.93;36.39;95145.13;5122483;27;20019;-77